Time;durP1;ratioP1;P1;durP2;ratioP2;P2;SDS_P1;SDS_P2;PMS_P1;PMS_P2;Temp;Humidity;BMP_temperature;BMP_pressure;BME280_temperature;BME280_humidity;BME280_pressure;Samples;Min_cycle;Max_cycle;Signal;HPM_P1;HPM_P2
2022/04/12 00:00:36;;;;;;;15.07;10.18;;;;;;;9.16;55.79;101129.19;7390405;19;20025;-53
2022/04/12 00:03:05;;;;;;;13.55;9.73;;;;;;;9.17;55.57;101128.28;7388046;19;20018;-55
2022/04/12 00:05:35;;;;;;;12.73;10.00;;;;;;;9.14;55.91;101118.78;7394398;19;20003;-50
2022/04/12 00:08:04;;;;;;;13.35;9.82;;;;;;;9.09;55.95;101122.47;7390209;19;20018;-55
2022/04/12 00:10:34;;;;;;;15.95;9.77;;;;;;;9.14;56.12;101116.16;7387499;19;20010;-55
2022/04/12 00:13:06;;;;;;;12.52;9.18;;;;;;;9.09;56.02;101120.69;7387059;19;20361;-55
2022/04/12 00:15:35;;;;;;;14.02;9.55;;;;;;;9.00;56.14;101121.84;7389815;19;20011;-53
2022/04/12 00:20:45;;;;;;;15.63;10.18;;;;;;;9.04;56.31;101112.16;7387961;19;20082;-56
2022/04/12 00:23:15;;;;;;;16.60;10.35;;;;;;;8.99;56.08;101114.06;7386964;19;20022;-51
2022/04/12 00:25:45;;;;;;;14.60;9.80;;;;;;;8.86;56.67;101111.00;7392502;19;20037;-53
2022/04/12 00:28:17;;;;;;;13.02;9.88;;;;;;;8.82;56.71;101109.38;7388400;19;20414;-59
2022/04/12 00:30:46;;;;;;;12.27;9.68;;;;;;;8.79;56.91;101110.31;7387285;19;20025;-56
2022/04/12 00:33:16;;;;;;;14.95;9.93;;;;;;;8.83;57.09;101098.03;7387586;19;20415;-54
2022/04/12 00:35:44;;;;;;;14.68;10.15;;;;;;;8.81;56.92;101097.22;7388581;19;20022;-55
2022/04/12 00:38:17;;;;;;;13.90;9.93;;;;;;;8.81;56.96;101081.53;7388713;19;20007;-52
2022/04/12 00:40:47;;;;;;;16.40;10.52;;;;;;;8.80;56.91;101075.47;7393286;19;20023;-56
2022/04/12 00:43:21;;;;;;;13.80;9.35;;;;;;;8.87;57.10;101083.09;7386957;19;20070;-57
2022/04/12 00:45:50;;;;;;;13.18;9.38;;;;;;;8.85;56.63;101077.06;7388721;19;20010;-54
2022/04/12 00:48:19;;;;;;;13.45;9.93;;;;;;;8.76;57.20;101071.22;7389151;19;20344;-54
2022/04/12 00:50:49;;;;;;;12.57;9.82;;;;;;;8.74;57.20;101073.06;7393307;19;20015;-54
2022/04/12 00:53:18;;;;;;;15.73;10.02;;;;;;;8.66;57.39;101077.66;7394486;19;20463;-57
2022/04/12 00:55:47;;;;;;;15.45;9.98;;;;;;;8.72;57.26;101074.00;7400328;19;20014;-55
2022/04/12 00:58:20;;;;;;;13.15;10.05;;;;;;;8.66;57.54;101064.59;7396653;19;20235;-54
2022/04/12 01:00:49;;;;;;;12.10;9.57;;;;;;;8.59;57.33;101073.53;7395728;19;20018;-53
2022/04/12 01:03:19;;;;;;;13.65;9.70;;;;;;;8.64;57.69;101074.25;7393539;19;20438;-55
2022/04/12 01:05:49;;;;;;;15.00;9.50;;;;;;;8.53;57.70;101066.75;7395699;19;20026;-54
2022/04/12 01:08:19;;;;;;;14.90;9.63;;;;;;;8.56;57.57;101057.97;7395406;19;20019;-52
2022/04/12 01:10:49;;;;;;;15.05;9.70;;;;;;;8.48;57.60;101051.25;7395492;19;20086;-52
2022/04/12 01:13:20;;;;;;;12.38;9.77;;;;;;;8.47;57.87;101044.31;7393347;19;20018;-53
2022/04/12 01:15:49;;;;;;;13.10;9.77;;;;;;;8.46;57.71;101047.81;7397335;19;20118;-55
2022/04/12 01:18:18;;;;;;;12.57;9.70;;;;;;;8.46;58.08;101065.25;7395308;19;20007;-53
2022/04/12 01:20:47;;;;;;;15.60;10.02;;;;;;;8.48;57.68;101061.69;7395166;19;20014;-57
2022/04/12 01:23:20;;;;;;;14.40;10.10;;;;;;;8.52;58.02;101062.44;7391981;19;20478;-54
2022/04/12 01:25:52;;;;;;;13.27;10.02;;;;;;;8.44;57.87;101072.25;7391509;19;20383;-52
2022/04/12 01:28:21;;;;;;;13.02;9.95;;;;;;;8.46;57.83;101078.31;7389669;19;20015;-59
2022/04/12 01:30:54;;;;;;;16.58;10.15;;;;;;;8.46;57.77;101073.94;7392497;19;20023;-54
2022/04/12 01:33:23;;;;;;;15.00;10.10;;;;;;;8.43;58.21;101057.47;7392912;19;20487;-57
2022/04/12 01:35:52;;;;;;;11.48;9.50;;;;;;;8.42;58.11;101059.22;7396936;19;20011;-55
2022/04/12 01:38:21;;;;;;;12.82;9.80;;;;;;;8.39;57.90;101061.94;7395121;19;20041;-52
2022/04/12 01:40:52;;;;;;;12.23;9.38;;;;;;;8.38;58.25;101064.59;7393837;19;20018;-57
2022/04/12 01:43:21;;;;;;;11.90;9.63;;;;;;;8.46;58.10;101054.78;7392147;19;20730;-51
2022/04/12 01:45:50;;;;;;;14.10;9.80;;;;;;;8.45;58.78;101053.09;7393796;19;20014;-54
2022/04/12 01:48:19;;;;;;;13.45;9.63;;;;;;;8.31;58.18;101056.97;7395585;19;20497;-55
2022/04/12 01:50:48;;;;;;;13.65;9.50;;;;;;;8.25;58.88;101056.28;7394213;19;20029;-56
2022/04/12 01:53:17;;;;;;;14.38;9.85;;;;;;;8.24;58.58;101054.59;7392657;19;20103;-55
2022/04/12 01:55:46;;;;;;;13.05;9.25;;;;;;;8.29;58.68;101055.28;7393716;19;20450;-55
2022/04/12 01:58:17;;;;;;;12.98;9.68;;;;;;;8.27;58.36;101065.78;7393751;19;20018;-55
2022/04/12 02:00:50;;;;;;;12.35;9.15;;;;;;;8.34;58.29;101056.00;7392877;19;20081;-57
2022/04/12 02:03:20;;;;;;;13.80;9.60;;;;;;;8.30;58.66;101057.84;7390131;19;20025;-57
2022/04/12 02:05:49;;;;;;;14.23;9.88;;;;;;;8.36;58.78;101061.19;7394237;19;20133;-55
2022/04/12 02:08:18;;;;;;;13.80;9.20;;;;;;;8.26;58.89;101065.84;7393901;19;20044;-56
2022/04/12 02:10:47;;;;;;;12.27;9.38;;;;;;;8.27;58.83;101059.72;7393422;19;20236;-54
2022/04/12 02:13:19;;;;;;;12.13;8.88;;;;;;;8.17;58.78;101061.75;7390657;19;20030;-59
2022/04/12 02:15:48;;;;;;;12.02;9.45;;;;;;;8.26;58.85;101058.84;7393362;19;20114;-56
2022/04/12 02:18:18;;;;;;;12.30;9.73;;;;;;;8.16;58.98;101046.13;7397651;19;20471;-55
2022/04/12 02:20:47;;;;;;;11.75;9.07;;;;;;;8.21;58.83;101058.16;7392832;19;20538;-57
2022/04/12 02:23:16;;;;;;;13.27;9.45;;;;;;;8.23;59.39;101051.09;7391553;19;20367;-56
2022/04/12 02:25:45;;;;;;;14.25;10.18;;;;;;;8.23;58.80;101047.66;7393474;19;20014;-55
2022/04/12 02:28:14;;;;;;;14.48;9.70;;;;;;;8.23;58.80;101042.44;7392876;19;20007;-55
2022/04/12 02:30:46;;;;;;;15.73;9.63;;;;;;;8.17;58.88;101040.00;7393195;19;20734;-54
2022/04/12 02:33:15;;;;;;;11.93;9.02;;;;;;;8.09;58.94;101038.47;7391468;19;20023;-59
2022/04/12 02:35:44;;;;;;;13.15;9.23;;;;;;;7.99;58.95;101037.03;7392817;19;20018;-54
2022/04/12 02:38:13;;;;;;;13.38;9.18;;;;;;;8.01;59.40;101040.47;7395859;19;20347;-56
2022/04/12 02:40:42;;;;;;;12.35;9.25;;;;;;;8.08;58.72;101042.00;7392169;19;20029;-54
2022/04/12 02:43:11;;;;;;;11.00;8.65;;;;;;;8.15;58.77;101045.25;7390600;19;20015;-52
2022/04/12 02:45:40;;;;;;;11.65;8.90;;;;;;;8.09;58.66;101037.63;7393652;19;20475;-55
2022/04/12 02:48:11;;;;;;;17.00;10.73;;;;;;;8.06;59.23;101029.91;7392802;19;20467;-53
2022/04/12 02:50:40;;;;;;;12.75;9.50;;;;;;;8.07;58.62;101037.69;7387622;19;20019;-55
2022/04/12 02:53:09;;;;;;;13.73;10.27;;;;;;;8.12;59.09;101032.31;7384690;19;20029;-55
2022/04/12 02:55:38;;;;;;;13.45;9.82;;;;;;;8.10;58.79;101034.13;7391627;19;20086;-57
2022/04/12 02:58:07;;;;;;;12.63;8.90;;;;;;;8.03;58.96;101030.84;7393610;19;20011;-56
2022/04/12 03:00:36;;;;;;;10.82;8.57;;;;;;;8.02;59.28;101033.50;7392238;19;20380;-58
2022/04/12 03:03:05;;;;;;;12.40;9.13;;;;;;;8.04;58.86;101034.28;7391111;19;20426;-56
2022/04/12 03:05:36;;;;;;;11.95;9.13;;;;;;;7.95;58.97;101031.09;7392460;19;20019;-59
2022/04/12 03:08:05;;;;;;;13.27;9.07;;;;;;;8.10;58.87;101036.75;7392492;19;20006;-56
2022/04/12 03:10:34;;;;;;;11.70;9.10;;;;;;;8.04;59.47;101018.63;7391582;19;20462;-55
2022/04/12 03:13:03;;;;;;;11.43;8.73;;;;;;;7.96;59.15;101019.72;7389609;19;20375;-53
2022/04/12 03:15:32;;;;;;;12.70;9.13;;;;;;;7.96;59.77;101014.50;7391714;19;20408;-60
2022/04/12 03:18:01;;;;;;;12.63;8.85;;;;;;;7.96;59.19;101018.88;7392006;19;20027;-51
2022/04/12 03:20:30;;;;;;;12.35;9.05;;;;;;;7.90;59.43;101019.91;7391258;19;20383;-54
2022/04/12 03:23:02;;;;;;;13.25;9.25;;;;;;;7.92;59.53;101018.13;7390843;19;20022;-56
2022/04/12 03:25:31;;;;;;;13.02;8.73;;;;;;;7.87;59.38;101009.56;7391418;19;20025;-55
2022/04/12 03:28:00;;;;;;;11.65;8.77;;;;;;;7.78;60.49;101007.25;7392042;19;20022;-53
2022/04/12 03:30:29;;;;;;;13.93;8.60;;;;;;;7.82;60.35;100993.19;7391210;19;20129;-54
2022/04/12 03:32:58;;;;;;;12.32;8.20;;;;;;;7.74;59.85;100998.66;7390127;19;20358;-55
2022/04/12 03:35:27;;;;;;;11.43;9.18;;;;;;;7.73;59.88;101001.31;7391805;19;20024;-55
2022/04/12 03:37:59;;;;;;;13.57;9.00;;;;;;;7.73;60.30;101003.91;7390678;19;20015;-60
2022/04/12 03:40:31;;;;;;;;;;;;;;;7.79;60.49;100998.50;7392511;19;20518;-55
2022/04/12 03:43:01;;;;;;;15.00;9.48;;;;;;;7.76;60.18;100993.38;7389213;19;19935;-54
2022/04/12 03:45:31;;;;;;;12.82;9.05;;;;;;;7.65;60.27;100990.25;7389758;19;20011;-53
2022/04/12 03:48:00;;;;;;;13.63;9.48;;;;;;;7.69;60.13;100986.66;7390575;19;20026;-58
2022/04/12 03:50:30;;;;;;;13.75;9.40;;;;;;;7.60;60.68;100982.56;7388336;19;20033;-58
2022/04/12 03:52:59;;;;;;;13.18;9.07;;;;;;;7.60;60.75;100988.63;7383280;19;20018;-55
2022/04/12 03:55:35;;;;;;;11.60;8.52;;;;;;;7.70;60.51;100985.75;7386116;19;20312;-54
2022/04/12 03:58:06;;;;;;;10.73;8.48;;;;;;;7.62;60.46;100996.41;7391484;19;20010;-54
2022/04/12 04:00:35;;;;;;;10.68;8.27;;;;;;;7.58;60.86;100982.59;7393591;19;20028;-56
2022/04/12 04:03:04;;;;;;;12.20;9.07;;;;;;;7.61;60.90;100990.34;7389806;19;20015;-55
2022/04/12 04:05:33;;;;;;;13.15;8.82;;;;;;;7.58;60.85;100997.41;7391765;19;20019;-58
2022/04/12 04:08:02;;;;;;;12.48;8.77;;;;;;;7.68;60.42;100990.16;7391530;19;20006;-56
2022/04/12 04:10:33;;;;;;;11.65;8.80;;;;;;;7.61;60.57;100979.91;7390573;19;20021;-55
2022/04/12 04:13:04;;;;;;;11.13;8.40;;;;;;;7.63;61.01;100985.91;7389735;19;20022;-56
2022/04/12 04:15:36;;;;;;;11.07;8.85;;;;;;;7.59;61.15;100989.53;7390482;19;20100;-56
2022/04/12 04:18:05;;;;;;;11.35;8.77;;;;;;;7.63;60.91;100988.53;7391274;19;20011;-56
2022/04/12 04:20:34;;;;;;;11.45;8.82;;;;;;;7.57;61.03;100990.47;7392220;19;20038;-59
2022/04/12 04:23:03;;;;;;;12.35;8.60;;;;;;;7.50;61.26;100981.97;7389729;19;20330;-53
2022/04/12 04:25:35;;;;;;;13.82;9.13;;;;;;;7.58;61.37;100985.22;7388225;19;20021;-56
2022/04/12 04:28:05;;;;;;;11.13;8.38;;;;;;;7.64;61.10;100994.63;7390931;19;20032;-58
2022/04/12 04:30:35;;;;;;;10.82;9.00;;;;;;;7.67;60.65;100978.88;7390736;19;20019;-59
2022/04/12 04:33:04;;;;;;;11.15;8.45;;;;;;;7.51;61.10;100973.25;7388957;19;20018;-56
2022/04/12 04:35:33;;;;;;;13.73;9.35;;;;;;;7.55;61.29;100981.81;7390798;19;20498;-55
2022/04/12 04:38:02;;;;;;;12.05;9.13;;;;;;;7.57;61.29;100987.88;7389187;19;20026;-56
2022/04/12 04:40:31;;;;;;;11.25;8.43;;;;;;;7.65;61.13;100983.28;7391090;19;20014;-57
2022/04/12 04:43:02;;;;;;;11.70;9.38;;;;;;;7.57;61.78;100986.09;7388797;19;20018;-56
2022/04/12 04:45:32;;;;;;;11.05;8.75;;;;;;;7.61;61.46;100994.72;7390441;19;20014;-56
2022/04/12 04:48:03;;;;;;;12.27;8.32;;;;;;;7.64;61.44;100986.78;7389831;19;20019;-55
2022/04/12 04:50:33;;;;;;;11.73;8.82;;;;;;;7.52;61.26;100984.53;7388910;19;20014;-52
2022/04/12 04:53:04;;;;;;;11.07;8.70;;;;;;;7.52;61.88;100959.31;7388359;19;20025;-57
2022/04/12 04:55:35;;;;;;;12.93;8.63;;;;;;;7.47;61.66;100971.63;7389218;19;20486;-53
2022/04/12 04:58:07;;;;;;;12.40;8.90;;;;;;;7.49;61.98;100974.19;7390493;19;20014;-55
2022/04/12 05:00:36;;;;;;;13.32;8.90;;;;;;;7.61;61.80;100979.06;7389267;19;20014;-54
2022/04/12 05:03:06;;;;;;;12.32;8.80;;;;;;;7.48;61.66;100981.16;7391997;19;20018;-58
2022/04/12 05:05:35;;;;;;;14.30;9.30;;;;;;;7.48;62.12;100980.28;7389979;19;20018;-56
2022/04/12 05:08:04;;;;;;;13.45;9.55;;;;;;;7.59;61.74;100996.50;7390143;19;20013;-56
2022/04/12 05:10:35;;;;;;;14.15;9.60;;;;;;;7.47;61.74;100992.50;7388525;19;20021;-55
2022/04/12 05:13:07;;;;;;;15.57;9.35;;;;;;;7.51;61.96;101003.66;7387747;19;20467;-59
2022/04/12 05:15:36;;;;;;;15.27;9.43;;;;;;;7.57;62.42;101006.97;7389413;19;20011;-58
2022/04/12 05:18:05;;;;;;;12.10;9.45;;;;;;;7.51;61.84;100999.31;7389019;19;20021;-55
2022/04/12 05:20:34;;;;;;;14.82;9.10;;;;;;;7.53;61.71;101007.94;7388617;19;20550;-57
2022/04/12 05:23:03;;;;;;;13.00;8.77;;;;;;;7.50;61.96;101009.81;7390795;19;20015;-58
2022/04/12 05:25:32;;;;;;;11.75;9.18;;;;;;;7.51;62.16;101008.88;7389272;19;20026;-58
2022/04/12 05:28:01;;;;;;;12.75;10.23;;;;;;;7.56;61.79;100991.38;7388914;19;20007;-51
2022/04/12 05:30:32;;;;;;;13.70;9.40;;;;;;;7.49;62.43;100990.69;7387023;19;20030;-56
2022/04/12 05:33:01;;;;;;;14.65;9.80;;;;;;;7.53;62.22;100988.84;7387631;19;20115;-56
2022/04/12 05:35:30;;;;;;;13.68;9.10;;;;;;;7.60;62.65;100999.03;7388975;19;20451;-56
2022/04/12 05:37:59;;;;;;;12.95;9.60;;;;;;;7.50;61.99;100996.78;7396620;19;20011;-55
2022/04/12 05:40:28;;;;;;;14.30;10.00;;;;;;;7.66;61.83;100994.56;7395825;19;20011;-57
2022/04/12 05:42:57;;;;;;;13.63;9.30;;;;;;;7.70;61.94;101006.63;7396299;19;20014;-55
2022/04/12 05:45:26;;;;;;;12.25;9.25;;;;;;;7.68;61.61;101014.50;7395991;19;20141;-56
2022/04/12 05:47:58;;;;;;;13.68;9.50;;;;;;;7.77;61.67;101003.78;7396711;19;20014;-54
2022/04/12 05:50:28;;;;;;;15.02;9.65;;;;;;;7.71;61.77;101003.09;7395293;19;20022;-54
2022/04/12 05:52:58;;;;;;;16.70;9.90;;;;;;;7.74;61.29;101001.25;7395142;19;20007;-58
2022/04/12 05:55:29;;;;;;;12.75;9.45;;;;;;;7.77;61.32;100993.34;7395905;19;20079;-58
2022/04/12 05:57:59;;;;;;;16.10;9.50;;;;;;;7.78;61.46;101002.88;7396019;19;20022;-60
2022/04/12 06:00:31;;;;;;;12.50;9.30;;;;;;;7.85;61.46;101016.59;7395156;19;20582;-58
2022/04/12 06:03:04;;;;;;;14.77;9.83;;;;;;;7.91;61.60;101012.97;7396821;19;20439;-60
2022/04/12 06:05:33;;;;;;;14.40;10.32;;;;;;;8.00;61.40;101023.09;7398571;19;20180;-58
2022/04/12 06:08:03;;;;;;;14.57;9.75;;;;;;;7.99;60.82;101018.78;7396223;19;20015;-60
2022/04/12 06:10:32;;;;;;;13.80;10.10;;;;;;;7.94;61.14;101013.72;7396583;19;20018;-55
2022/04/12 06:13:01;;;;;;;15.10;9.68;;;;;;;8.03;62.36;101004.75;7395366;19;20019;-60
2022/04/12 06:15:31;;;;;;;15.40;10.32;;;;;;;8.02;60.88;101016.06;7400089;19;20018;-59
2022/04/12 06:17:59;;;;;;;14.85;10.23;;;;;;;8.02;60.84;101010.84;7402388;19;20090;-59
2022/04/12 06:20:31;;;;;;;13.10;10.32;;;;;;;8.08;60.75;101023.75;7404030;19;20003;-59
2022/04/12 06:23:00;;;;;;;13.52;9.77;;;;;;;8.08;61.56;101017.66;7399760;19;20019;-59
2022/04/12 06:25:29;;;;;;;12.50;9.35;;;;;;;8.04;61.03;101013.41;7394731;19;20010;-54
2022/04/12 06:27:58;;;;;;;17.40;10.40;;;;;;;7.98;61.39;101014.50;7395392;19;20025;-54
2022/04/12 06:30:30;;;;;;;22.98;10.63;;;;;;;8.05;61.40;101017.75;7394593;19;20027;-54
2022/04/12 06:32:59;;;;;;;14.13;10.05;;;;;;;8.07;61.64;101024.63;7394245;19;20026;-57
2022/04/12 06:35:31;;;;;;;16.25;11.07;;;;;;;8.06;61.48;101006.41;7395373;19;20082;-55
2022/04/12 06:37:59;;;;;;;13.32;10.32;;;;;;;8.14;61.75;101009.66;7391130;19;20014;-57
2022/04/12 06:40:28;;;;;;;13.82;10.40;;;;;;;8.10;61.42;101021.06;7394298;19;20010;-54
2022/04/12 06:42:57;;;;;;;16.42;10.75;;;;;;;8.10;61.48;101015.84;7393761;19;20018;-56
2022/04/12 06:45:26;;;;;;;13.85;10.10;;;;;;;8.19;61.28;101017.31;7395466;19;20025;-57
2022/04/12 06:47:56;;;;;;;12.85;10.93;;;;;;;8.25;61.13;101012.78;7393962;19;20029;-55
2022/04/12 06:50:26;;;;;;;14.40;10.57;;;;;;;8.24;61.33;101015.44;7393866;19;20015;-58
2022/04/12 06:53:00;;;;;;;13.65;10.35;;;;;;;8.48;61.11;101011.19;7389927;19;20020;-57
2022/04/12 06:55:29;;;;;;;13.50;9.90;;;;;;;8.70;60.71;101010.47;7391939;19;20016;-60
2022/04/12 06:57:59;;;;;;;14.70;10.50;;;;;;;8.69;60.01;101006.19;7388184;19;20015;-59
2022/04/12 07:00:28;;;;;;;12.50;10.52;;;;;;;8.69;59.78;100999.19;7393362;19;20029;-56
2022/04/12 07:02:57;;;;;;;15.68;10.93;;;;;;;8.73;59.96;101005.19;7393259;19;20018;-57
2022/04/12 07:05:25;;;;;;;16.48;11.23;;;;;;;8.81;60.39;101009.25;7392951;19;20117;-57
2022/04/12 07:07:56;;;;;;;16.00;11.18;;;;;;;8.81;60.29;101004.00;7397624;19;20049;-55
2022/04/12 07:10:27;;;;;;;15.27;10.55;;;;;;;8.77;59.98;101004.19;7393688;19;20041;-55
2022/04/12 07:12:56;;;;;;;20.05;10.93;;;;;;;8.72;59.88;100998.25;7393761;19;20400;-54
2022/04/12 07:15:25;;;;;;;19.08;10.80;;;;;;;8.78;59.97;100992.81;7394436;19;20035;-55
2022/04/12 07:17:54;;;;;;;17.40;11.13;;;;;;;8.88;59.53;100990.72;7393662;19;20010;-56
2022/04/12 07:20:23;;;;;;;17.27;11.35;;;;;;;8.93;60.04;100980.97;7393466;19;20039;-57
2022/04/12 07:22:52;;;;;;;16.38;11.00;;;;;;;9.06;59.49;100978.78;7393998;19;20015;-59
2022/04/12 07:25:21;;;;;;;15.88;10.85;;;;;;;9.06;59.53;100990.09;7391873;19;20019;-55
2022/04/12 07:27:52;;;;;;;19.13;11.52;;;;;;;9.26;60.79;100988.53;7394184;19;20010;-56
2022/04/12 07:30:21;;;;;;;15.48;11.02;;;;;;;9.45;58.88;100980.88;7393461;19;20013;-56
2022/04/12 07:32:50;;;;;;;16.48;11.20;;;;;;;9.47;58.70;100968.56;7392509;19;20022;-59
2022/04/12 07:35:19;;;;;;;16.48;11.15;;;;;;;9.59;58.35;100964.66;7392660;19;20348;-56
2022/04/12 07:37:48;;;;;;;15.85;10.88;;;;;;;9.66;58.59;100968.75;7393460;19;20015;-55
2022/04/12 07:40:17;;;;;;;14.90;10.45;;;;;;;9.72;59.08;100971.13;7392476;19;20019;-54
2022/04/12 07:42:45;;;;;;;14.57;11.18;;;;;;;9.79;58.58;100969.13;7392799;19;20019;-59
2022/04/12 07:45:17;;;;;;;17.52;11.70;;;;;;;9.84;58.52;100973.28;7396579;19;20017;-53
2022/04/12 07:47:46;;;;;;;16.98;10.98;;;;;;;9.83;58.77;100966.34;7392941;19;20026;-58
2022/04/12 07:50:15;;;;;;;15.00;10.88;;;;;;;10.00;59.02;100951.72;7393210;19;20018;-57
2022/04/12 07:52:43;;;;;;;15.25;10.82;;;;;;;10.22;59.25;100946.47;7393009;19;20034;-53
2022/04/12 07:55:12;;;;;;;17.27;11.75;;;;;;;10.46;58.78;100949.03;7393509;19;20074;-55
2022/04/12 07:57:41;;;;;;;16.27;11.52;;;;;;;10.62;58.55;100955.34;7392102;19;20018;-60
2022/04/12 08:00:12;;;;;;;15.98;11.38;;;;;;;10.65;58.29;100960.44;7392458;19;20022;-57
2022/04/12 08:02:43;;;;;;;14.35;11.27;;;;;;;10.73;58.47;100970.59;7393271;19;20395;-56
2022/04/12 08:05:12;;;;;;;20.95;11.57;;;;;;;11.00;58.66;100975.56;7395627;19;20014;-59
2022/04/12 08:07:47;;;;;;;18.15;10.88;;;;;;;11.15;58.64;100985.41;7392410;19;20026;-57
2022/04/12 08:10:17;;;;;;;18.90;11.20;;;;;;;11.30;57.27;100983.84;7391803;19;20015;-55
2022/04/12 08:12:46;;;;;;;14.70;10.65;;;;;;;11.33;56.99;100980.25;7390601;19;20026;-59
2022/04/12 08:15:16;;;;;;;18.02;11.43;;;;;;;11.50;57.97;100982.94;7391615;19;20015;-58
2022/04/12 08:17:48;;;;;;;17.27;10.38;;;;;;;11.65;55.68;100980.53;7392554;19;20479;-59
2022/04/12 08:20:17;;;;;;;14.15;9.63;;;;;;;11.81;53.95;100973.66;7391694;19;20464;-59
2022/04/12 08:22:46;;;;;;;14.25;8.80;;;;;;;11.89;53.37;100971.53;7393784;19;20018;-60
2022/04/12 08:25:15;;;;;;;10.68;8.45;;;;;;;11.96;52.89;100958.16;7393259;19;20353;-58
2022/04/12 08:27:43;;;;;;;15.30;9.05;;;;;;;12.10;53.87;100953.91;7389942;19;20458;-58
2022/04/12 08:30:14;;;;;;;13.20;9.13;;;;;;;12.16;53.40;100960.66;7390883;19;20019;-59
2022/04/12 08:32:46;;;;;;;13.43;8.57;;;;;;;12.24;52.94;100971.63;7389954;19;20018;-59
2022/04/12 08:35:18;;;;;;;14.17;9.70;;;;;;;12.27;53.21;100963.59;7391215;19;20490;-59
2022/04/12 08:37:47;;;;;;;14.68;9.65;;;;;;;12.33;53.32;100959.81;7390856;19;20275;-58
2022/04/12 08:40:18;;;;;;;16.20;9.65;;;;;;;12.41;53.42;100959.47;7390434;19;20010;-59
2022/04/12 08:42:48;;;;;;;12.77;9.68;;;;;;;12.44;53.35;100962.78;7390765;19;20022;-58
2022/04/12 08:45:17;;;;;;;15.48;9.77;;;;;;;12.50;52.70;100953.72;7392232;19;20030;-58
2022/04/12 08:47:45;;;;;;;15.20;10.25;;;;;;;12.40;54.20;100963.84;7390993;19;20337;-58
2022/04/12 08:50:14;;;;;;;12.95;9.55;;;;;;;12.62;54.17;100962.78;7389574;19;20014;-59
2022/04/12 08:52:46;;;;;;;15.18;10.07;;;;;;;12.83;54.02;100965.25;7390246;19;20023;-61
2022/04/12 08:55:15;;;;;;;13.23;10.32;;;;;;;12.70;53.44;100965.03;7390783;19;20018;-60
2022/04/12 08:57:44;;;;;;;16.98;9.82;;;;;;;12.87;53.66;100957.13;7391013;19;20484;-60
2022/04/12 09:00:14;;;;;;;14.45;10.07;;;;;;;12.93;53.50;100953.31;7390274;19;20019;-60
2022/04/12 09:02:43;;;;;;;17.80;10.75;;;;;;;12.96;53.30;100953.16;7389659;19;20023;-58
2022/04/12 09:05:12;;;;;;;12.75;10.10;;;;;;;13.20;52.89;100960.72;7389529;19;20027;-58
2022/04/12 09:07:49;;;;;;;13.10;10.20;;;;;;;13.25;52.46;100967.44;7390730;19;20010;-60
2022/04/12 09:10:19;;;;;;;15.10;10.00;;;;;;;13.31;52.77;100961.81;7390282;19;20026;-58
2022/04/12 09:12:48;;;;;;;14.52;10.45;;;;;;;13.52;52.59;100953.72;7401039;19;20024;-57
2022/04/12 09:15:17;;;;;;;13.77;10.70;;;;;;;13.34;53.40;100955.56;7398000;19;20078;-63
2022/04/12 09:17:49;;;;;;;15.65;10.65;;;;;;;13.32;53.44;100947.75;7398457;19;20011;-59
2022/04/12 09:20:19;;;;;;;15.70;10.68;;;;;;;13.55;53.26;100950.91;7397307;19;20015;-56
2022/04/12 09:23:02;;;;;;;15.15;10.30;;;;;;;13.64;53.37;100937.25;7396153;19;20048;-60
2022/04/12 09:25:31;;;;;;;14.32;11.30;;;;;;;13.87;53.83;100932.50;7397993;19;20360;-58
2022/04/12 09:28:04;;;;;;;15.57;11.00;;;;;;;13.99;52.82;100929.16;7397394;19;20021;-60
2022/04/12 09:30:33;;;;;;;;;;;;;;;14.07;51.99;100927.88;7399427;19;20013;-59
2022/04/12 09:33:02;;;;;;;13.55;10.02;;;;;;;14.07;52.16;100926.09;7394406;19;19926;-58
2022/04/12 09:35:31;;;;;;;16.00;10.48;;;;;;;14.44;51.84;100929.25;7397078;19;20475;-60
2022/04/12 09:38:04;;;;;;;14.38;9.88;;;;;;;14.54;50.98;100930.38;7398600;19;20499;-61
2022/04/12 09:40:32;;;;;;;;;;;;;;;14.67;51.04;100935.81;7397112;19;20041;-59
2022/04/12 09:43:05;;;;;;;13.68;10.20;;;;;;;14.69;50.65;100928.66;7395501;19;19928;-65
2022/04/12 09:45:34;;;;;;;;;;;;;;;14.64;51.46;100930.72;7396893;19;20485;-59
2022/04/12 09:48:04;;;;;;;15.30;9.70;;;;;;;14.81;50.70;100928.84;7402611;19;19919;-60
2022/04/12 09:50:35;;;;;;;12.73;10.10;;;;;;;14.83;50.86;100927.81;7398450;19;20015;-56
2022/04/12 09:53:09;;;;;;;14.65;9.98;;;;;;;14.88;50.65;100925.72;7395714;19;20025;-59
2022/04/12 09:55:40;;;;;;;17.73;10.07;;;;;;;15.09;50.43;100927.16;7396421;19;20487;-59
2022/04/12 09:58:11;;;;;;;13.52;10.10;;;;;;;15.26;49.89;100921.69;7397160;19;20026;-60
2022/04/12 10:00:41;;;;;;;15.07;10.10;;;;;;;15.22;50.71;100909.63;7399037;19;20329;-60
2022/04/12 10:03:12;;;;;;;14.88;9.55;;;;;;;15.56;50.87;100921.56;7394036;19;20026;-57
2022/04/12 10:05:41;;;;;;;15.18;10.10;;;;;;;15.32;50.23;100916.03;7392430;19;20034;-59
2022/04/12 10:08:14;;;;;;;15.80;10.25;;;;;;;15.51;49.35;100912.22;7392338;19;20022;-56
2022/04/12 10:10:44;;;;;;;;;;;;;;;15.58;50.08;100917.00;7395275;19;20022;-55
2022/04/12 10:13:13;;;;;;;14.13;10.07;;;;;;;15.74;50.10;100921.31;7394439;19;19923;-60
2022/04/12 10:15:43;;;;;;;15.02;9.70;;;;;;;15.77;49.77;100902.63;7396791;19;20340;-57
2022/04/12 10:18:15;;;;;;;13.07;9.52;;;;;;;15.82;49.76;100910.31;7395935;19;20015;-61
2022/04/12 10:20:45;;;;;;;12.45;8.95;;;;;;;15.85;48.93;100910.94;7395846;19;20027;-61
2022/04/12 10:23:19;;;;;;;13.07;9.07;;;;;;;15.97;49.11;100906.63;7391540;19;20014;-56
2022/04/12 10:25:52;;;;;;;16.00;9.80;;;;;;;16.04;48.91;100907.09;7394787;19;20030;-57
2022/04/12 10:28:22;;;;;;;16.05;9.50;;;;;;;16.01;48.86;100912.56;7399733;19;20010;-55
2022/04/12 10:30:51;;;;;;;12.68;8.63;;;;;;;16.29;48.86;100908.09;7395264;19;20022;-57
2022/04/12 10:33:26;;;;;;;10.73;8.85;;;;;;;16.38;48.73;100904.84;7393860;19;20127;-60
2022/04/12 10:36:03;;;;;;;11.68;8.85;;;;;;;16.40;49.13;100900.28;7395632;19;20474;-59
2022/04/12 10:38:45;;;;;;;12.32;8.80;;;;;;;16.51;48.30;100902.22;7395571;19;20377;-56
2022/04/12 10:41:17;;;;;;;13.57;8.48;;;;;;;16.70;47.56;100896.50;7395144;19;20482;-60
2022/04/12 10:43:46;;;;;;;12.35;9.18;;;;;;;16.73;47.43;100893.63;7395005;19;20019;-59
2022/04/12 10:46:16;;;;;;;10.45;7.60;;;;;;;16.93;47.14;100893.13;7394034;19;20741;-60
2022/04/12 10:48:45;;;;;;;10.50;7.68;;;;;;;17.40;46.53;100882.75;7397765;19;20010;-55
2022/04/12 10:51:15;;;;;;;15.00;7.82;;;;;;;17.71;45.84;100879.69;7398268;19;20472;-60
2022/04/12 10:53:58;;;;;;;12.52;8.13;;;;;;;17.53;45.76;100885.38;7394546;19;20375;-60
2022/04/12 10:56:28;;;;;;;12.25;7.82;;;;;;;17.35;45.32;100876.97;7395336;19;20344;-55
2022/04/12 10:58:57;;;;;;;11.05;7.85;;;;;;;17.32;45.40;100871.88;7395062;19;20011;-60
2022/04/12 11:01:31;;;;;;;12.25;7.28;;;;;;;17.57;45.57;100876.25;7396163;19;20043;-60
2022/04/12 11:04:02;;;;;;;16.65;7.20;;;;;;;17.85;43.91;100865.41;7397268;19;20360;-60
2022/04/12 11:06:33;;;;;;;10.90;6.90;;;;;;;17.69;44.74;100865.69;7393940;19;20019;-61
2022/04/12 11:09:16;;;;;;;8.95;6.25;;;;;;;17.74;44.33;100868.88;7397339;19;20011;-60
2022/04/12 11:11:48;;;;;;;10.13;7.10;;;;;;;17.91;44.92;100859.69;7393655;19;20099;-61
2022/04/12 11:14:26;;;;;;;10.52;7.30;;;;;;;18.08;43.61;100858.41;7394364;19;20560;-61
2022/04/12 11:17:00;;;;;;;10.00;6.30;;;;;;;18.29;43.08;100858.59;7393471;19;20021;-60
2022/04/12 11:19:29;;;;;;;11.55;6.93;;;;;;;17.95;43.78;100853.19;7393227;19;20014;-61
2022/04/12 11:22:01;;;;;;;11.32;7.38;;;;;;;17.81;44.89;100856.84;7394276;19;20037;-60
2022/04/12 11:24:33;;;;;;;9.95;6.72;;;;;;;17.63;45.18;100849.28;7395151;19;20631;-61
2022/04/12 11:27:07;;;;;;;9.93;7.20;;;;;;;17.27;45.04;100848.38;7392652;19;20030;-59
2022/04/12 11:29:37;;;;;;;11.25;6.63;;;;;;;17.39;45.04;100853.75;7397666;19;20351;-58
2022/04/12 11:32:07;;;;;;;10.77;6.45;;;;;;;17.40;45.44;100856.28;7394370;19;20022;-60
2022/04/12 11:34:38;;;;;;;10.32;6.28;;;;;;;17.53;45.48;100852.75;7395954;19;20018;-60
2022/04/12 11:37:09;;;;;;;9.77;6.45;;;;;;;17.52;44.81;100843.94;7394241;19;20014;-61